sensor_id;sensor_type;location;lat;lon;timestamp;temperature;humidity
15203;DHT22;7702;51.046;5.184;2022-10-16T00:01:24;13.70;99.90
15203;DHT22;7702;51.046;5.184;2022-10-16T00:03:50;13.60;99.90
15203;DHT22;7702;51.046;5.184;2022-10-16T00:06:18;13.70;99.90
15203;DHT22;7702;51.046;5.184;2022-10-16T00:08:45;13.60;99.90
15203;DHT22;7702;51.046;5.184;2022-10-16T00:11:22;13.60;99.90
15203;DHT22;7702;51.046;5.184;2022-10-16T00:13:50;13.50;99.90
15203;DHT22;7702;51.046;5.184;2022-10-16T00:16:18;13.50;99.90
15203;DHT22;7702;51.046;5.184;2022-10-16T00:18:44;13.50;99.90
15203;DHT22;7702;51.046;5.184;2022-10-16T00:21:15;13.50;99.90
15203;DHT22;7702;51.046;5.184;2022-10-16T00:23:41;13.50;99.90
15203;DHT22;7702;51.046;5.184;2022-10-16T00:26:10;13.50;99.90
15203;DHT22;7702;51.046;5.184;2022-10-16T00:28:36;13.50;99.90
15203;DHT22;7702;51.046;5.184;2022-10-16T00:31:06;13.50;99.90
15203;DHT22;7702;51.046;5.184;2022-10-16T00:33:33;13.50;99.90
15203;DHT22;7702;51.046;5.184;2022-10-16T00:36:00;13.40;99.90
15203;DHT22;7702;51.046;5.184;2022-10-16T00:38:26;13.40;99.90
15203;DHT22;7702;51.046;5.184;2022-10-16T00:40:52;13.40;99.90
15203;DHT22;7702;51.046;5.184;2022-10-16T00:46:16;13.30;99.90
15203;DHT22;7702;51.046;5.184;2022-10-16T00:48:50;13.30;99.90
15203;DHT22;7702;51.046;5.184;2022-10-16T00:51:20;13.20;99.90
15203;DHT22;7702;51.046;5.184;2022-10-16T00:53:48;13.20;99.90
15203;DHT22;7702;51.046;5.184;2022-10-16T00:56:13;13.20;99.90
15203;DHT22;7702;51.046;5.184;2022-10-16T00:58:39;13.20;99.90
15203;DHT22;7702;51.046;5.184;2022-10-16T01:01:06;13.20;99.90
15203;DHT22;7702;51.046;5.184;2022-10-16T01:03:34;13.10;99.90
15203;DHT22;7702;51.046;5.184;2022-10-16T01:17:10;13.00;99.90
15203;DHT22;7702;51.046;5.184;2022-10-16T01:20:04;13.00;99.90
15203;DHT22;7702;51.046;5.184;2022-10-16T01:22:42;13.00;99.90
15203;DHT22;7702;51.046;5.184;2022-10-16T01:28:08;13.00;99.90
15203;DHT22;7702;51.046;5.184;2022-10-16T01:30:35;13.00;99.90
15203;DHT22;7702;51.046;5.184;2022-10-16T01:33:20;12.90;99.90
15203;DHT22;7702;51.046;5.184;2022-10-16T01:35:52;12.90;99.90
15203;DHT22;7702;51.046;5.184;2022-10-16T01:38:21;12.90;99.90
15203;DHT22;7702;51.046;5.184;2022-10-16T01:40:54;12.90;99.90
15203;DHT22;7702;51.046;5.184;2022-10-16T01:43:34;12.90;99.90
15203;DHT22;7702;51.046;5.184;2022-10-16T01:46:02;12.80;99.90
15203;DHT22;7702;51.046;5.184;2022-10-16T01:48:29;12.80;99.90
15203;DHT22;7702;51.046;5.184;2022-10-16T01:51:11;12.80;99.90
15203;DHT22;7702;51.046;5.184;2022-10-16T01:53:38;12.70;99.90
15203;DHT22;7702;51.046;5.184;2022-10-16T01:56:08;12.80;99.90
15203;DHT22;7702;51.046;5.184;2022-10-16T01:58:37;12.80;99.90
15203;DHT22;7702;51.046;5.184;2022-10-16T02:01:07;12.80;99.90
15203;DHT22;7702;51.046;5.184;2022-10-16T02:03:37;12.70;99.90
15203;DHT22;7702;51.046;5.184;2022-10-16T02:06:04;12.70;99.90
15203;DHT22;7702;51.046;5.184;2022-10-16T02:08:30;12.70;99.90
15203;DHT22;7702;51.046;5.184;2022-10-16T02:10:57;12.70;99.90
15203;DHT22;7702;51.046;5.184;2022-10-16T02:13:35;12.60;99.90
15203;DHT22;7702;51.046;5.184;2022-10-16T02:16:02;12.60;99.90
15203;DHT22;7702;51.046;5.184;2022-10-16T02:18:29;12.60;99.90
15203;DHT22;7702;51.046;5.184;2022-10-16T02:21:10;12.60;99.90
15203;DHT22;7702;51.046;5.184;2022-10-16T02:23:54;12.60;99.90
15203;DHT22;7702;51.046;5.184;2022-10-16T02:29:04;12.60;99.90
15203;DHT22;7702;51.046;5.184;2022-10-16T02:31:34;12.60;99.90
15203;DHT22;7702;51.046;5.184;2022-10-16T02:34:02;12.60;99.90
15203;DHT22;7702;51.046;5.184;2022-10-16T02:36:30;12.60;99.90
15203;DHT22;7702;51.046;5.184;2022-10-16T02:38:57;12.70;99.90
15203;DHT22;7702;51.046;5.184;2022-10-16T02:41:25;12.70;99.90
15203;DHT22;7702;51.046;5.184;2022-10-16T02:43:51;12.70;99.90
15203;DHT22;7702;51.046;5.184;2022-10-16T02:46:17;12.70;99.90
15203;DHT22;7702;51.046;5.184;2022-10-16T02:48:43;12.70;99.90
15203;DHT22;7702;51.046;5.184;2022-10-16T02:51:10;12.70;99.90
15203;DHT22;7702;51.046;5.184;2022-10-16T02:53:35;12.70;99.90
15203;DHT22;7702;51.046;5.184;2022-10-16T02:56:01;12.80;99.90
15203;DHT22;7702;51.046;5.184;2022-10-16T02:58:27;12.70;99.90
15203;DHT22;7702;51.046;5.184;2022-10-16T03:00:52;12.70;99.90
15203;DHT22;7702;51.046;5.184;2022-10-16T03:03:18;12.70;99.90
15203;DHT22;7702;51.046;5.184;2022-10-16T03:05:44;12.70;99.90
15203;DHT22;7702;51.046;5.184;2022-10-16T03:08:12;12.70;99.90
15203;DHT22;7702;51.046;5.184;2022-10-16T03:10:37;12.70;99.90
15203;DHT22;7702;51.046;5.184;2022-10-16T03:13:03;12.70;99.90
15203;DHT22;7702;51.046;5.184;2022-10-16T03:15:29;12.70;99.90
15203;DHT22;7702;51.046;5.184;2022-10-16T03:17:57;12.60;99.90
15203;DHT22;7702;51.046;5.184;2022-10-16T03:20:23;12.70;99.90
15203;DHT22;7702;51.046;5.184;2022-10-16T03:22:49;12.70;99.90
15203;DHT22;7702;51.046;5.184;2022-10-16T03:25:14;12.80;99.90
15203;DHT22;7702;51.046;5.184;2022-10-16T03:27:40;12.80;99.90
15203;DHT22;7702;51.046;5.184;2022-10-16T03:30:06;12.70;99.90
15203;DHT22;7702;51.046;5.184;2022-10-16T03:32:32;12.70;99.90
15203;DHT22;7702;51.046;5.184;2022-10-16T03:34:58;12.70;99.90
15203;DHT22;7702;51.046;5.184;2022-10-16T03:37:24;12.70;99.90
15203;DHT22;7702;51.046;5.184;2022-10-16T03:39:50;12.80;99.90
15203;DHT22;7702;51.046;5.184;2022-10-16T03:42:16;12.80;99.90
15203;DHT22;7702;51.046;5.184;2022-10-16T03:44:42;12.80;99.90
15203;DHT22;7702;51.046;5.184;2022-10-16T03:47:07;12.80;99.90
15203;DHT22;7702;51.046;5.184;2022-10-16T03:49:33;12.80;99.90
15203;DHT22;7702;51.046;5.184;2022-10-16T03:51:58;12.80;99.90
15203;DHT22;7702;51.046;5.184;2022-10-16T03:54:24;12.80;99.90
15203;DHT22;7702;51.046;5.184;2022-10-16T03:56:50;12.80;99.90
15203;DHT22;7702;51.046;5.184;2022-10-16T03:59:15;12.80;99.90
15203;DHT22;7702;51.046;5.184;2022-10-16T04:01:41;12.80;99.90
15203;DHT22;7702;51.046;5.184;2022-10-16T04:04:07;12.80;99.90
15203;DHT22;7702;51.046;5.184;2022-10-16T04:06:32;12.80;99.90
15203;DHT22;7702;51.046;5.184;2022-10-16T04:08:58;12.80;99.90
15203;DHT22;7702;51.046;5.184;2022-10-16T04:11:24;12.80;99.90
15203;DHT22;7702;51.046;5.184;2022-10-16T04:13:50;12.80;99.90
15203;DHT22;7702;51.046;5.184;2022-10-16T04:16:16;12.80;99.90
15203;DHT22;7702;51.046;5.184;2022-10-16T04:18:41;12.90;99.90
15203;DHT22;7702;51.046;5.184;2022-10-16T04:21:08;12.80;99.90
15203;DHT22;7702;51.046;5.184;2022-10-16T04:23:33;12.80;99.90
15203;DHT22;7702;51.046;5.184;2022-10-16T04:25:59;12.90;99.90
15203;DHT22;7702;51.046;5.184;2022-10-16T04:28:25;12.80;99.90
15203;DHT22;7702;51.046;5.184;2022-10-16T04:30:51;12.80;99.90
15203;DHT22;7702;51.046;5.184;2022-10-16T04:33:17;12.80;99.90
15203;DHT22;7702;51.046;5.184;2022-10-16T04:35:42;12.80;99.90
15203;DHT22;7702;51.046;5.184;2022-10-16T04:38:08;12.80;99.90
15203;DHT22;7702;51.046;5.184;2022-10-16T04:40:34;12.80;99.90
15203;DHT22;7702;51.046;5.184;2022-10-16T04:43:02;12.80;99.90
15203;DHT22;7702;51.046;5.184;2022-10-16T04:45:28;12.80;99.90
15203;DHT22;7702;51.046;5.184;2022-10-16T04:48:00;12.80;99.90
15203;DHT22;7702;51.046;5.184;2022-10-16T04:50:26;12.70;99.90
15203;DHT22;7702;51.046;5.184;2022-10-16T04:52:52;12.80;99.90
15203;DHT22;7702;51.046;5.184;2022-10-16T04:55:18;12.70;99.90
15203;DHT22;7702;51.046;5.184;2022-10-16T04:57:43;12.70;99.90
15203;DHT22;7702;51.046;5.184;2022-10-16T05:00:10;12.80;99.90
15203;DHT22;7702;51.046;5.184;2022-10-16T05:02:36;12.70;99.90
15203;DHT22;7702;51.046;5.184;2022-10-16T05:05:02;12.70;99.90
15203;DHT22;7702;51.046;5.184;2022-10-16T05:07:28;12.70;99.90
15203;DHT22;7702;51.046;5.184;2022-10-16T05:09:54;12.70;99.90
15203;DHT22;7702;51.046;5.184;2022-10-16T05:12:19;12.70;99.90
15203;DHT22;7702;51.046;5.184;2022-10-16T05:14:45;12.70;99.90
15203;DHT22;7702;51.046;5.184;2022-10-16T05:17:11;12.70;99.90
15203;DHT22;7702;51.046;5.184;2022-10-16T05:19:36;12.70;99.90
15203;DHT22;7702;51.046;5.184;2022-10-16T05:22:02;12.70;99.90
15203;DHT22;7702;51.046;5.184;2022-10-16T05:24:28;12.70;99.90
15203;DHT22;7702;51.046;5.184;2022-10-16T05:26:53;12.80;99.90
15203;DHT22;7702;51.046;5.184;2022-10-16T05:29:19;12.70;99.90
15203;DHT22;7702;51.046;5.184;2022-10-16T05:31:46;12.70;99.90
15203;DHT22;7702;51.046;5.184;2022-10-16T05:34:12;12.70;99.90
15203;DHT22;7702;51.046;5.184;2022-10-16T05:36:38;12.70;99.90
15203;DHT22;7702;51.046;5.184;2022-10-16T05:39:05;12.70;99.90
15203;DHT22;7702;51.046;5.184;2022-10-16T05:41:30;12.60;99.90
15203;DHT22;7702;51.046;5.184;2022-10-16T05:43:57;12.60;99.90
15203;DHT22;7702;51.046;5.184;2022-10-16T05:46:22;12.60;99.90
15203;DHT22;7702;51.046;5.184;2022-10-16T05:48:48;12.60;99.90
15203;DHT22;7702;51.046;5.184;2022-10-16T05:51:14;12.60;99.90
15203;DHT22;7702;51.046;5.184;2022-10-16T05:53:40;12.60;99.90
15203;DHT22;7702;51.046;5.184;2022-10-16T05:56:08;12.60;99.90
15203;DHT22;7702;51.046;5.184;2022-10-16T05:58:36;12.60;99.90
15203;DHT22;7702;51.046;5.184;2022-10-16T06:01:11;12.60;99.90
15203;DHT22;7702;51.046;5.184;2022-10-16T06:03:37;12.60;99.90
15203;DHT22;7702;51.046;5.184;2022-10-16T06:06:17;12.60;99.90
15203;DHT22;7702;51.046;5.184;2022-10-16T06:08:44;12.60;99.90
15203;DHT22;7702;51.046;5.184;2022-10-16T06:11:16;12.50;99.90
15203;DHT22;7702;51.046;5.184;2022-10-16T06:13:42;12.50;99.90
15203;DHT22;7702;51.046;5.184;2022-10-16T06:16:09;12.50;99.90
15203;DHT22;7702;51.046;5.184;2022-10-16T06:18:36;12.50;99.90
15203;DHT22;7702;51.046;5.184;2022-10-16T06:21:08;12.50;99.90
15203;DHT22;7702;51.046;5.184;2022-10-16T06:23:34;12.50;99.90
15203;DHT22;7702;51.046;5.184;2022-10-16T06:26:11;12.50;99.90
15203;DHT22;7702;51.046;5.184;2022-10-16T06:28:38;12.50;99.90
15203;DHT22;7702;51.046;5.184;2022-10-16T06:31:05;12.50;99.90
15203;DHT22;7702;51.046;5.184;2022-10-16T06:33:31;12.40;99.90
15203;DHT22;7702;51.046;5.184;2022-10-16T06:36:04;12.40;99.90
15203;DHT22;7702;51.046;5.184;2022-10-16T06:38:31;12.40;99.90
15203;DHT22;7702;51.046;5.184;2022-10-16T06:40:57;12.40;99.90
15203;DHT22;7702;51.046;5.184;2022-10-16T06:43:23;12.40;99.90
15203;DHT22;7702;51.046;5.184;2022-10-16T06:45:56;12.40;99.90
15203;DHT22;7702;51.046;5.184;2022-10-16T06:48:23;12.40;99.90
15203;DHT22;7702;51.046;5.184;2022-10-16T06:51:03;12.40;99.90
15203;DHT22;7702;51.046;5.184;2022-10-16T06:53:32;12.50;99.90
15203;DHT22;7702;51.046;5.184;2022-10-16T06:56:07;12.50;99.90
15203;DHT22;7702;51.046;5.184;2022-10-16T06:58:33;12.60;99.90
15203;DHT22;7702;51.046;5.184;2022-10-16T07:00:59;12.70;99.90
15203;DHT22;7702;51.046;5.184;2022-10-16T07:03:24;12.80;99.90
15203;DHT22;7702;51.046;5.184;2022-10-16T07:05:50;12.90;99.90
15203;DHT22;7702;51.046;5.184;2022-10-16T07:08:16;13.00;99.90
15203;DHT22;7702;51.046;5.184;2022-10-16T07:10:41;13.00;99.90
15203;DHT22;7702;51.046;5.184;2022-10-16T07:13:07;13.10;99.90
15203;DHT22;7702;51.046;5.184;2022-10-16T07:15:33;13.10;99.90
15203;DHT22;7702;51.046;5.184;2022-10-16T07:17:59;13.20;99.90
15203;DHT22;7702;51.046;5.184;2022-10-16T07:20:25;13.30;99.90
15203;DHT22;7702;51.046;5.184;2022-10-16T07:22:51;13.30;99.90
15203;DHT22;7702;51.046;5.184;2022-10-16T07:25:18;13.40;99.90
15203;DHT22;7702;51.046;5.184;2022-10-16T07:27:43;13.40;99.90
15203;DHT22;7702;51.046;5.184;2022-10-16T07:30:09;13.50;99.90
15203;DHT22;7702;51.046;5.184;2022-10-16T07:32:35;13.60;99.90
15203;DHT22;7702;51.046;5.184;2022-10-16T07:35:01;13.70;99.90
15203;DHT22;7702;51.046;5.184;2022-10-16T07:37:27;13.80;99.90
15203;DHT22;7702;51.046;5.184;2022-10-16T07:39:52;13.90;99.90
15203;DHT22;7702;51.046;5.184;2022-10-16T07:42:18;14.00;99.90
15203;DHT22;7702;51.046;5.184;2022-10-16T07:44:45;14.10;99.90
15203;DHT22;7702;51.046;5.184;2022-10-16T07:47:11;14.20;99.90
15203;DHT22;7702;51.046;5.184;2022-10-16T07:49:36;14.30;99.90
15203;DHT22;7702;51.046;5.184;2022-10-16T07:52:02;14.30;99.90
15203;DHT22;7702;51.046;5.184;2022-10-16T07:54:28;14.40;99.90
15203;DHT22;7702;51.046;5.184;2022-10-16T07:56:53;14.50;99.90
15203;DHT22;7702;51.046;5.184;2022-10-16T07:59:19;14.60;99.90
15203;DHT22;7702;51.046;5.184;2022-10-16T08:01:45;14.80;99.90
15203;DHT22;7702;51.046;5.184;2022-10-16T08:04:10;14.90;99.90
15203;DHT22;7702;51.046;5.184;2022-10-16T08:06:38;15.00;99.90
15203;DHT22;7702;51.046;5.184;2022-10-16T08:09:05;15.20;99.90
15203;DHT22;7702;51.046;5.184;2022-10-16T08:11:31;15.30;99.90
15203;DHT22;7702;51.046;5.184;2022-10-16T08:13:57;15.60;99.90
15203;DHT22;7702;51.046;5.184;2022-10-16T08:16:23;15.80;99.90
15203;DHT22;7702;51.046;5.184;2022-10-16T08:18:48;15.90;99.90
15203;DHT22;7702;51.046;5.184;2022-10-16T08:21:19;16.00;99.90
15203;DHT22;7702;51.046;5.184;2022-10-16T08:23:45;16.00;99.90
15203;DHT22;7702;51.046;5.184;2022-10-16T08:26:11;16.00;99.90
15203;DHT22;7702;51.046;5.184;2022-10-16T08:28:37;16.00;99.90
15203;DHT22;7702;51.046;5.184;2022-10-16T08:31:13;16.10;99.90
15203;DHT22;7702;51.046;5.184;2022-10-16T08:33:41;16.20;99.90
15203;DHT22;7702;51.046;5.184;2022-10-16T08:36:08;16.40;99.90
15203;DHT22;7702;51.046;5.184;2022-10-16T08:38:34;16.40;99.90
15203;DHT22;7702;51.046;5.184;2022-10-16T08:41:36;16.60;99.90
15203;DHT22;7702;51.046;5.184;2022-10-16T08:44:42;16.80;99.90
15203;DHT22;7702;51.046;5.184;2022-10-16T08:47:17;16.90;99.90
15203;DHT22;7702;51.046;5.184;2022-10-16T08:49:56;17.00;99.90
15203;DHT22;7702;51.046;5.184;2022-10-16T08:52:25;17.20;99.90
15203;DHT22;7702;51.046;5.184;2022-10-16T08:54:55;17.20;99.90
15203;DHT22;7702;51.046;5.184;2022-10-16T08:57:22;17.40;99.90
15203;DHT22;7702;51.046;5.184;2022-10-16T08:59:49;17.30;99.90
15203;DHT22;7702;51.046;5.184;2022-10-16T09:03:17;17.50;99.90
15203;DHT22;7702;51.046;5.184;2022-10-16T09:13:48;18.00;99.90
15203;DHT22;7702;51.046;5.184;2022-10-16T09:16:22;18.00;99.90
15203;DHT22;7702;51.046;5.184;2022-10-16T09:19:15;18.30;99.90
15203;DHT22;7702;51.046;5.184;2022-10-16T09:21:45;18.20;99.90
15203;DHT22;7702;51.046;5.184;2022-10-16T09:24:21;18.20;99.90
15203;DHT22;7702;51.046;5.184;2022-10-16T09:26:47;18.40;99.90
15203;DHT22;7702;51.046;5.184;2022-10-16T09:29:18;18.40;99.90
15203;DHT22;7702;51.046;5.184;2022-10-16T09:31:45;18.70;99.90
15203;DHT22;7702;51.046;5.184;2022-10-16T09:34:32;18.90;99.90
15203;DHT22;7702;51.046;5.184;2022-10-16T09:37:00;18.80;99.90
15203;DHT22;7702;51.046;5.184;2022-10-16T09:39:29;18.90;99.90
15203;DHT22;7702;51.046;5.184;2022-10-16T09:41:55;19.40;99.90
15203;DHT22;7702;51.046;5.184;2022-10-16T09:44:28;19.50;99.90
15203;DHT22;7702;51.046;5.184;2022-10-16T09:47:05;20.00;99.90
15203;DHT22;7702;51.046;5.184;2022-10-16T09:49:37;20.20;99.90
15203;DHT22;7702;51.046;5.184;2022-10-16T09:52:11;20.50;99.90
15203;DHT22;7702;51.046;5.184;2022-10-16T09:54:37;20.80;99.90
15203;DHT22;7702;51.046;5.184;2022-10-16T09:57:10;20.30;99.90
15203;DHT22;7702;51.046;5.184;2022-10-16T09:59:55;19.80;99.90
15203;DHT22;7702;51.046;5.184;2022-10-16T10:02:37;19.70;99.90
15203;DHT22;7702;51.046;5.184;2022-10-16T10:05:27;19.80;99.90
15203;DHT22;7702;51.046;5.184;2022-10-16T10:07:58;19.60;99.90
15203;DHT22;7702;51.046;5.184;2022-10-16T10:10:30;19.70;99.90
15203;DHT22;7702;51.046;5.184;2022-10-16T10:12:56;19.80;99.90
15203;DHT22;7702;51.046;5.184;2022-10-16T10:15:23;19.80;99.90
15203;DHT22;7702;51.046;5.184;2022-10-16T10:17:55;19.80;99.90
15203;DHT22;7702;51.046;5.184;2022-10-16T10:20:31;20.10;99.90
15203;DHT22;7702;51.046;5.184;2022-10-16T10:23:01;20.60;99.90
15203;DHT22;7702;51.046;5.184;2022-10-16T10:25:42;21.20;99.90
15203;DHT22;7702;51.046;5.184;2022-10-16T10:30:56;21.40;99.90
15203;DHT22;7702;51.046;5.184;2022-10-16T10:39:06;21.40;99.90
15203;DHT22;7702;51.046;5.184;2022-10-16T10:42:05;21.10;99.90
15203;DHT22;7702;51.046;5.184;2022-10-16T10:44:57;21.40;99.90
15203;DHT22;7702;51.046;5.184;2022-10-16T10:50:20;21.00;99.90
15203;DHT22;7702;51.046;5.184;2022-10-16T10:58:24;21.40;99.90
15203;DHT22;7702;51.046;5.184;2022-10-16T11:06:18;21.00;99.90
15203;DHT22;7702;51.046;5.184;2022-10-16T11:11:44;21.50;99.90
15203;DHT22;7702;51.046;5.184;2022-10-16T11:14:24;21.80;99.90
15203;DHT22;7702;51.046;5.184;2022-10-16T11:17:00;21.40;99.90
15203;DHT22;7702;51.046;5.184;2022-10-16T11:20:02;21.20;99.90
15203;DHT22;7702;51.046;5.184;2022-10-16T11:25:20;22.10;99.90
15203;DHT22;7702;51.046;5.184;2022-10-16T11:30:41;22.10;99.90
15203;DHT22;7702;51.046;5.184;2022-10-16T11:41:18;20.80;99.90
15203;DHT22;7702;51.046;5.184;2022-10-16T11:46:30;21.30;99.90
15203;DHT22;7702;51.046;5.184;2022-10-16T11:49:18;20.80;99.90
15203;DHT22;7702;51.046;5.184;2022-10-16T11:54:24;20.50;99.90
15203;DHT22;7702;51.046;5.184;2022-10-16T11:56:57;20.50;99.90
15203;DHT22;7702;51.046;5.184;2022-10-16T11:59:37;20.40;99.90
15203;DHT22;7702;51.046;5.184;2022-10-16T12:04:59;20.10;99.90
15203;DHT22;7702;51.046;5.184;2022-10-16T12:07:34;20.10;99.90
15203;DHT22;7702;51.046;5.184;2022-10-16T12:10:31;20.10;99.90
15203;DHT22;7702;51.046;5.184;2022-10-16T12:13:03;19.90;99.90
15203;DHT22;7702;51.046;5.184;2022-10-16T12:15:32;19.90;99.90
15203;DHT22;7702;51.046;5.184;2022-10-16T12:17:58;19.70;99.90
15203;DHT22;7702;51.046;5.184;2022-10-16T12:20:29;19.60;99.90
15203;DHT22;7702;51.046;5.184;2022-10-16T12:28:00;19.50;99.90
15203;DHT22;7702;51.046;5.184;2022-10-16T12:30:29;19.60;99.90
15203;DHT22;7702;51.046;5.184;2022-10-16T12:33:06;19.60;99.90
15203;DHT22;7702;51.046;5.184;2022-10-16T12:35:44;19.80;99.90
15203;DHT22;7702;51.046;5.184;2022-10-16T12:41:07;19.70;99.90
15203;DHT22;7702;51.046;5.184;2022-10-16T12:43:41;19.80;99.90
15203;DHT22;7702;51.046;5.184;2022-10-16T12:48:36;19.80;99.90
15203;DHT22;7702;51.046;5.184;2022-10-16T12:51:25;19.90;99.90
15203;DHT22;7702;51.046;5.184;2022-10-16T12:54:02;19.90;99.90
15203;DHT22;7702;51.046;5.184;2022-10-16T13:05:32;19.90;99.90
15203;DHT22;7702;51.046;5.184;2022-10-16T13:16:27;19.80;99.90
15203;DHT22;7702;51.046;5.184;2022-10-16T13:29:16;19.60;99.90
15203;DHT22;7702;51.046;5.184;2022-10-16T13:31:43;19.50;99.90
15203;DHT22;7702;51.046;5.184;2022-10-16T13:34:18;19.60;99.90
15203;DHT22;7702;51.046;5.184;2022-10-16T13:36:45;19.50;99.90
15203;DHT22;7702;51.046;5.184;2022-10-16T13:41:57;19.60;99.90
15203;DHT22;7702;51.046;5.184;2022-10-16T13:44:23;19.70;99.90
15203;DHT22;7702;51.046;5.184;2022-10-16T13:46:59;19.60;99.90
15203;DHT22;7702;51.046;5.184;2022-10-16T13:49:25;19.70;99.90
15203;DHT22;7702;51.046;5.184;2022-10-16T13:52:00;19.80;99.90
15203;DHT22;7702;51.046;5.184;2022-10-16T13:54:27;19.80;99.90
15203;DHT22;7702;51.046;5.184;2022-10-16T13:56:54;19.90;99.90
15203;DHT22;7702;51.046;5.184;2022-10-16T13:59:25;19.90;99.90
15203;DHT22;7702;51.046;5.184;2022-10-16T14:01:53;19.90;99.90
15203;DHT22;7702;51.046;5.184;2022-10-16T14:04:20;20.00;99.90
15203;DHT22;7702;51.046;5.184;2022-10-16T14:06:49;20.00;99.90
15203;DHT22;7702;51.046;5.184;2022-10-16T14:09:27;20.20;99.90
15203;DHT22;7702;51.046;5.184;2022-10-16T14:12:02;20.30;99.90
15203;DHT22;7702;51.046;5.184;2022-10-16T14:14:42;20.30;99.90
15203;DHT22;7702;51.046;5.184;2022-10-16T14:17:35;20.30;99.90
15203;DHT22;7702;51.046;5.184;2022-10-16T14:20:04;20.20;99.90
15203;DHT22;7702;51.046;5.184;2022-10-16T14:22:41;20.20;99.90
15203;DHT22;7702;51.046;5.184;2022-10-16T14:25:29;20.20;99.90
15203;DHT22;7702;51.046;5.184;2022-10-16T14:28:04;20.10;99.90
15203;DHT22;7702;51.046;5.184;2022-10-16T14:30:32;20.20;99.90
15203;DHT22;7702;51.046;5.184;2022-10-16T14:33:06;20.20;99.90
15203;DHT22;7702;51.046;5.184;2022-10-16T14:35:44;20.20;99.90
15203;DHT22;7702;51.046;5.184;2022-10-16T14:38:19;20.00;99.90
15203;DHT22;7702;51.046;5.184;2022-10-16T14:40:49;20.00;99.90
15203;DHT22;7702;51.046;5.184;2022-10-16T14:45:58;19.80;99.90
15203;DHT22;7702;51.046;5.184;2022-10-16T14:48:24;19.90;99.90
15203;DHT22;7702;51.046;5.184;2022-10-16T14:50:50;19.90;99.90
15203;DHT22;7702;51.046;5.184;2022-10-16T14:53:17;19.90;99.90
15203;DHT22;7702;51.046;5.184;2022-10-16T14:55:43;19.80;99.90
15203;DHT22;7702;51.046;5.184;2022-10-16T14:58:22;19.80;99.90
15203;DHT22;7702;51.046;5.184;2022-10-16T15:00:49;19.80;99.90
15203;DHT22;7702;51.046;5.184;2022-10-16T15:03:15;19.80;99.90
15203;DHT22;7702;51.046;5.184;2022-10-16T15:05:40;19.80;99.90
15203;DHT22;7702;51.046;5.184;2022-10-16T15:08:06;19.90;99.90
15203;DHT22;7702;51.046;5.184;2022-10-16T15:10:38;19.90;99.90
15203;DHT22;7702;51.046;5.184;2022-10-16T15:13:04;19.90;99.90
15203;DHT22;7702;51.046;5.184;2022-10-16T15:15:33;19.90;99.90
15203;DHT22;7702;51.046;5.184;2022-10-16T15:18:00;19.80;99.90
15203;DHT22;7702;51.046;5.184;2022-10-16T15:20:31;19.80;99.90
15203;DHT22;7702;51.046;5.184;2022-10-16T15:23:00;19.80;99.90
15203;DHT22;7702;51.046;5.184;2022-10-16T15:27:58;19.70;99.90
15203;DHT22;7702;51.046;5.184;2022-10-16T15:30:25;19.60;99.90
15203;DHT22;7702;51.046;5.184;2022-10-16T15:32:51;19.50;99.90
15203;DHT22;7702;51.046;5.184;2022-10-16T15:35:17;19.40;99.90
15203;DHT22;7702;51.046;5.184;2022-10-16T15:37:43;19.40;99.90
15203;DHT22;7702;51.046;5.184;2022-10-16T15:40:10;19.40;99.90
15203;DHT22;7702;51.046;5.184;2022-10-16T15:42:35;19.30;99.90
15203;DHT22;7702;51.046;5.184;2022-10-16T15:45:01;19.30;99.90
15203;DHT22;7702;51.046;5.184;2022-10-16T15:47:27;19.30;99.90
15203;DHT22;7702;51.046;5.184;2022-10-16T15:49:52;19.20;99.90
15203;DHT22;7702;51.046;5.184;2022-10-16T15:52:18;19.20;99.90
15203;DHT22;7702;51.046;5.184;2022-10-16T15:54:44;19.10;99.90
15203;DHT22;7702;51.046;5.184;2022-10-16T15:57:09;19.10;99.90
15203;DHT22;7702;51.046;5.184;2022-10-16T15:59:35;18.90;99.90
15203;DHT22;7702;51.046;5.184;2022-10-16T16:02:01;18.80;99.90
15203;DHT22;7702;51.046;5.184;2022-10-16T16:04:29;18.70;99.90
15203;DHT22;7702;51.046;5.184;2022-10-16T16:06:55;18.60;99.90
15203;DHT22;7702;51.046;5.184;2022-10-16T16:09:21;18.50;99.90
15203;DHT22;7702;51.046;5.184;2022-10-16T16:11:49;18.50;99.90
15203;DHT22;7702;51.046;5.184;2022-10-16T16:14:15;18.40;99.90
15203;DHT22;7702;51.046;5.184;2022-10-16T16:16:41;18.30;99.90
15203;DHT22;7702;51.046;5.184;2022-10-16T16:19:08;18.30;99.90
15203;DHT22;7702;51.046;5.184;2022-10-16T16:21:35;18.20;99.90
15203;DHT22;7702;51.046;5.184;2022-10-16T16:24:00;18.10;99.90
15203;DHT22;7702;51.046;5.184;2022-10-16T16:26:33;18.00;99.90
15203;DHT22;7702;51.046;5.184;2022-10-16T16:29:03;18.00;99.90
15203;DHT22;7702;51.046;5.184;2022-10-16T16:31:30;17.90;99.90
15203;DHT22;7702;51.046;5.184;2022-10-16T16:33:57;17.80;99.90
15203;DHT22;7702;51.046;5.184;2022-10-16T16:36:23;17.70;99.90
15203;DHT22;7702;51.046;5.184;2022-10-16T16:38:49;17.60;99.90
15203;DHT22;7702;51.046;5.184;2022-10-16T16:41:18;17.60;99.90
15203;DHT22;7702;51.046;5.184;2022-10-16T16:43:45;17.60;99.90
15203;DHT22;7702;51.046;5.184;2022-10-16T16:46:11;17.50;99.90
15203;DHT22;7702;51.046;5.184;2022-10-16T16:48:37;17.40;99.90
15203;DHT22;7702;51.046;5.184;2022-10-16T16:51:07;17.40;99.90
15203;DHT22;7702;51.046;5.184;2022-10-16T16:53:35;17.30;99.90
15203;DHT22;7702;51.046;5.184;2022-10-16T16:56:05;17.30;99.90
15203;DHT22;7702;51.046;5.184;2022-10-16T16:58:31;17.30;99.90
15203;DHT22;7702;51.046;5.184;2022-10-16T17:00:57;17.20;99.90
15203;DHT22;7702;51.046;5.184;2022-10-16T17:03:28;17.20;99.90
15203;DHT22;7702;51.046;5.184;2022-10-16T17:06:05;17.20;99.90
15203;DHT22;7702;51.046;5.184;2022-10-16T17:08:31;17.20;99.90
15203;DHT22;7702;51.046;5.184;2022-10-16T17:10:57;17.20;99.90
15203;DHT22;7702;51.046;5.184;2022-10-16T17:13:25;17.20;99.90
15203;DHT22;7702;51.046;5.184;2022-10-16T17:15:51;17.20;99.90
15203;DHT22;7702;51.046;5.184;2022-10-16T17:18:19;17.10;99.90
15203;DHT22;7702;51.046;5.184;2022-10-16T17:20:46;17.10;99.90
15203;DHT22;7702;51.046;5.184;2022-10-16T17:23:13;17.00;99.90
15203;DHT22;7702;51.046;5.184;2022-10-16T17:25:40;17.00;99.90
15203;DHT22;7702;51.046;5.184;2022-10-16T17:28:08;16.90;99.90
15203;DHT22;7702;51.046;5.184;2022-10-16T17:30:37;16.80;99.90
15203;DHT22;7702;51.046;5.184;2022-10-16T17:33:05;16.80;99.90
15203;DHT22;7702;51.046;5.184;2022-10-16T17:35:44;16.80;99.90
15203;DHT22;7702;51.046;5.184;2022-10-16T17:38:12;16.80;99.90
15203;DHT22;7702;51.046;5.184;2022-10-16T17:40:38;16.80;99.90
15203;DHT22;7702;51.046;5.184;2022-10-16T17:43:04;16.60;99.90
15203;DHT22;7702;51.046;5.184;2022-10-16T17:45:30;16.60;99.90
15203;DHT22;7702;51.046;5.184;2022-10-16T17:47:59;16.60;99.90
15203;DHT22;7702;51.046;5.184;2022-10-16T17:50:25;16.60;99.90
15203;DHT22;7702;51.046;5.184;2022-10-16T17:52:51;16.60;99.90
15203;DHT22;7702;51.046;5.184;2022-10-16T17:55:16;16.60;99.90
15203;DHT22;7702;51.046;5.184;2022-10-16T17:57:42;16.60;99.90
15203;DHT22;7702;51.046;5.184;2022-10-16T18:00:08;16.50;99.90